Latest Weather Observations for Walpole North

IDW60801

Issued at 9:35 pm WST Tuesday 22 July 2014 (issued every 30 minutes, with the page automatically refreshed every 10 minutes)

About weather observations | Map of weather stations | Latest weather observations for WA | Other Formats
Station Details ID: 009998 Name: NORTH WALPOLE Lat: -34.95 Lon: 116.72 Height: 73.0 m
Data from the previous 72 hours. | See also: Recent months at Walpole North
Date/Time
WST
Temp
°C
App
Temp
°C
Dew
Point
Rel
Hum
%
Delta-T
°C
Wind Press
QNH
hPa
Press
MSL
hPa
Rain
since 9 am
mm
Dir
 
Spd
km/h
Gust
km/h
Spd
kts
Gust
kts
22/09:30pm 11.4 9.3 9.8 90 0.8 SSW 11 22 6 12 1018.3 - 17.0
22/09:00pm 11.2 9.4 9.3 88 1.0 WSW 9 15 5 8 1018.1 1018.2 17.0
22/08:30pm 11.3 9.2 9.6 89 0.9 SW 11 20 6 11 1017.9 - 17.0
22/08:00pm 11.4 8.1 9.5 88 1.0 SW 17 30 9 16 1017.5 1017.6 16.6
22/07:30pm 11.7 8.5 9.9 89 0.9 SW 17 26 9 14 1017.2 - 16.6
22/07:00pm 11.9 8.9 10.5 91 0.7 SW 17 26 9 14 1016.8 1016.9 16.4
22/06:30pm 11.8 8.9 10.9 94 0.5 SW 17 28 9 15 1016.4 - 16.2
22/06:00pm 11.7 8.7 10.8 94 0.5 WSW 17 28 9 15 1015.8 1015.8 16.0
22/05:30pm 11.9 8.5 10.6 92 0.7 SSW 19 35 10 19 1015.4 - 14.6
22/05:00pm 11.7 9.4 10.6 93 0.6 SW 13 24 7 13 1014.9 1014.9 14.6
22/04:30pm 11.9 8.8 10.3 90 0.8 WSW 17 24 9 13 1014.7 - 13.4
22/04:00pm 12.0 8.6 10.6 91 0.7 SSW 19 30 10 16 1014.3 1014.3 13.2
22/03:30pm 11.0 7.1 9.6 91 0.7 WSW 20 37 11 20 1013.8 - 12.2
22/03:00pm 12.3 10.9 10.9 91 0.7 W 9 15 5 8 1013.1 1013.1 10.6
22/02:30pm 12.4 9.5 11.1 92 0.7 SW 17 26 9 14 1012.6 - 10.2
22/02:00pm 12.2 10.3 11.7 97 0.3 WSW 13 22 7 12 1012.1 1012.1 10.0
22/01:30pm 11.6 9.8 11.0 96 0.3 S 11 20 6 11 1012.0 - 9.2
22/01:00pm 12.1 11.0 11.9 99 0.1 SW 9 15 5 8 1012.1 1012.1 8.6
22/12:30pm 11.2 9.8 11.0 99 0.1 WNW 9 13 5 7 1012.0 - 6.8
22/12:00pm 11.0 7.7 10.8 99 0.1 NW 19 26 10 14 1012.2 1012.2 1.8
22/11:30am 11.4 8.9 11.2 99 0.1 NNW 15 20 8 11 1012.5 - 1.6
22/11:00am 10.8 6.8 10.5 98 0.2 NNW 22 32 12 17 1012.6 1012.6 0.6
22/10:30am 10.4 6.6 9.8 96 0.3 NW 20 28 11 15 1012.7 - 0.4
22/10:00am 11.0 6.5 10.1 94 0.5 NW 24 30 13 16 1012.7 1012.7 0.0
22/09:30am 10.7 6.1 9.8 94 0.5 NW 24 33 13 18 1012.1 - 0.0
22/09:00am 10.1 5.4 9.3 95 0.4 NW 24 32 13 17 1012.0 1012.0 5.2
22/08:30am 9.7 4.5 8.9 95 0.4 NW 26 35 14 19 1011.9 - 5.2
22/08:00am 9.5 4.7 8.7 95 0.4 NNW 24 33 13 18 1011.6 1011.6 5.2
22/07:30am 9.4 5.5 8.6 95 0.4 NW 19 26 10 14 1011.5 - 5.2
22/07:00am 9.5 6.1 9.0 97 0.2 NW 17 20 9 11 1011.2 1011.2 5.2
22/06:30am 9.5 5.5 9.2 98 0.1 NW 20 24 11 13 1010.9 - 5.2
22/06:00am 9.4 5.7 9.3 99 0.0 NNW 19 26 10 14 1010.9 1010.9 5.2
22/05:30am 9.5 5.6 9.4 99 0.0 NNW 20 26 11 14 1010.6 - 5.2
22/05:00am 9.3 6.3 9.2 99 0.0 NNW 15 24 8 13 1010.6 1010.6 5.2
22/04:30am 9.2 6.9 9.1 99 0.0 WNW 11 15 6 8 1010.5 - 5.2
22/04:00am 9.5 5.8 9.4 99 0.0 NNW 19 26 10 14 1010.3 1010.3 5.2
22/03:30am 9.5 5.6 9.4 99 0.0 NW 20 26 11 14 1010.2 - 5.2
22/03:00am 9.5 5.6 9.4 99 0.0 NW 20 28 11 15 1010.4 1010.4 5.0
22/02:30am 9.5 7.3 9.4 99 0.0 N 11 15 6 8 1010.2 - 5.0
22/02:00am 9.5 8.6 9.4 99 0.0 NNW 4 11 2 6 1010.0 1010.0 5.0
22/01:30am 9.6 7.4 9.5 99 0.0 WNW 11 15 6 8 1010.6 - 4.6
22/01:00am 9.9 7.8 9.8 99 0.1 WNW 11 20 6 11 1010.7 1010.7 4.2
22/12:30am 10.1 6.9 9.8 98 0.2 NNW 17 22 9 12 1010.4 - 3.8
22/12:00am 10.2 7.4 9.9 98 0.2 NNW 15 20 8 11 1010.4 1010.4 3.6
 
Date/Time
WST
Temp
°C
App
Temp
°C
Dew
Point
Rel
Hum
%
Delta-T
°C
Wind Press
QNH
hPa
Press
MSL
hPa
Rain
since 9 am
mm
Dir
 
Spd
km/h
Gust
km/h
Spd
kts
Gust
kts
21/11:30pm 10.3 7.9 10.0 98 0.2 NNW 13 15 7 8 1010.4 - 3.4
21/11:00pm 10.5 7.4 10.2 98 0.2 NW 17 24 9 13 1010.4 1010.4 3.2
21/10:30pm 10.9 7.5 10.4 97 0.3 NNW 19 26 10 14 1010.8 - 2.0
21/10:00pm 11.1 7.4 10.3 95 0.4 NW 20 33 11 18 1010.4 1010.4 1.0
21/09:30pm 11.1 8.4 10.2 94 0.5 NW 15 20 8 11 1010.3 - 1.0
21/09:00pm 11.3 8.2 10.2 93 0.6 NW 17 22 9 12 1010.3 1010.3 1.0
21/08:30pm 11.5 8.5 10.6 94 0.5 NW 17 26 9 14 1010.3 - 1.0
21/08:00pm 11.8 8.9 11.0 95 0.4 NW 17 26 9 14 1010.2 1010.2 1.0
21/07:30pm 11.8 8.2 10.7 93 0.6 NNW 20 24 11 13 1010.4 - 1.0
21/07:00pm 12.2 8.7 10.1 87 1.1 WNW 19 28 10 15 1010.4 1010.4 0.0
21/06:30pm 13.1 11.4 9.9 81 1.6 WNW 9 11 5 6 1010.0 - 0.0
21/06:00pm 13.6 11.8 9.3 75 2.2 W 9 13 5 7 1009.7 1009.7 0.0
21/05:30pm 14.8 12.6 9.2 69 2.9 N 11 19 6 10 1009.4 - 0.0
21/05:00pm 15.2 12.3 9.6 69 2.9 N 15 26 8 14 1009.3 1009.3 0.0
21/04:30pm 15.5 12.6 9.6 68 3.1 N 15 28 8 15 1009.3 - 0.0
21/04:00pm 15.4 12.0 9.3 67 3.2 N 17 24 9 13 1009.3 1009.3 0.0
21/03:30pm 16.0 12.6 9.2 64 3.5 N 17 30 9 16 1009.4 - 0.0
21/03:00pm 16.3 12.6 9.5 64 3.6 NNW 19 35 10 19 1009.4 1009.4 0.0
21/02:30pm 16.6 13.5 10.2 66 3.4 NNW 17 28 9 15 1009.6 - 0.0
21/02:00pm 16.3 12.2 10.2 67 3.2 N 22 35 12 19 1009.7 1009.7 0.0
21/01:30pm 15.8 12.1 10.3 70 2.9 N 20 33 11 18 1010.3 - 0.0
21/01:00pm 15.3 11.2 10.1 71 2.7 NNW 22 43 12 23 1011.1 1011.1 0.0
21/12:30pm 15.5 12.2 9.6 68 3.1 NNW 17 30 9 16 1011.4 - 0.0
21/12:00pm 15.8 13.0 10.1 69 3.0 NNW 15 19 8 10 1012.1 1012.1 0.0
21/11:30am 15.2 11.8 9.1 67 3.1 NNW 17 30 9 16 1012.7 - 0.0
21/11:00am 14.9 11.5 9.3 69 2.9 NNW 17 30 9 16 1013.1 1013.1 0.0
21/10:30am 14.5 11.9 9.3 71 2.7 N 13 20 7 11 1013.5 - 0.0
21/10:00am 13.5 10.8 9.0 74 2.3 N 13 24 7 13 1013.8 1013.8 0.0
21/09:30am 12.2 9.9 8.9 80 1.7 N 11 20 6 11 1014.0 - 0.0
21/09:00am 11.7 9.1 9.4 86 1.2 N 13 19 7 10 1014.0 1014.0 1.6
21/08:30am 11.4 9.4 10.0 91 0.7 N 11 17 6 9 1014.0 - 1.6
21/08:00am 10.3 8.4 9.2 93 0.5 N 9 17 5 9 1014.1 1014.1 1.6
21/07:30am 10.2 8.3 9.1 93 0.5 N 9 15 5 8 1014.0 - 1.6
21/07:00am 10.2 8.4 9.3 94 0.4 N 9 15 5 8 1013.7 1013.7 1.6
21/06:30am 10.3 8.6 9.8 97 0.3 N 9 17 5 9 1013.6 - 1.6
21/06:00am 10.3 8.6 10.0 98 0.2 N 9 11 5 6 1013.3 1013.3 1.6
21/05:30am 10.5 7.8 10.3 99 0.1 NNW 15 20 8 11 1013.5 - 1.4
21/05:00am 10.8 8.5 10.6 99 0.1 NNW 13 17 7 9 1013.6 1013.6 1.4
21/04:30am 10.9 9.1 10.7 99 0.1 NNW 11 15 6 8 1013.7 - 1.4
21/04:00am 11.1 9.3 10.9 99 0.1 NNW 11 13 6 7 1013.6 1013.6 1.4
21/03:30am 11.3 9.2 11.1 99 0.1 NW 13 17 7 9 1013.7 - 1.4
21/03:00am 11.4 9.3 11.2 99 0.1 NW 13 17 7 9 1013.9 1013.9 1.4
21/02:30am 11.8 10.2 11.6 99 0.1 NW 11 17 6 9 1013.9 - 1.4
21/02:00am 12.0 10.1 11.8 99 0.1 NW 13 17 7 9 1013.9 1013.9 1.2
21/01:30am 12.0 10.1 11.8 99 0.1 NNW 13 15 7 8 1013.8 - 1.2
21/01:00am 12.0 10.5 11.8 99 0.1 NW 11 17 6 9 1013.9 1013.9 1.2
21/12:30am 12.1 10.2 11.9 99 0.1 NW 13 19 7 10 1014.1 - 1.2
21/12:00am 11.8 9.8 11.6 99 0.1 NW 13 17 7 9 1014.2 1014.2 1.2
 
Date/Time
WST
Temp
°C
App
Temp
°C
Dew
Point
Rel
Hum
%
Delta-T
°C
Wind Press
QNH
hPa
Press
MSL
hPa
Rain
since 9 am
mm
Dir
 
Spd
km/h
Gust
km/h
Spd
kts
Gust
kts
20/11:30pm 12.0 10.1 11.8 99 0.1 NW 13 17 7 9 1014.6 - 1.2
20/11:00pm 12.1 9.5 11.9 99 0.1 NW 17 20 9 11 1014.8 1014.8 1.0
20/10:30pm 12.1 10.2 11.9 99 0.1 NW 13 15 7 8 1014.9 - 0.8
20/10:00pm 12.3 10.9 12.1 99 0.1 NW 11 17 6 9 1014.8 1014.8 0.4
20/09:30pm 12.4 11.0 12.2 99 0.1 NNW 11 13 6 7 1014.8 - 0.4
20/09:00pm 12.1 12.6 11.6 97 0.3 CALM 0 0 0 0 1014.7 1014.7 0.4
20/08:30pm 11.9 12.3 11.1 95 0.4 CALM 0 0 0 0 1014.7 - 0.2
20/08:00pm 12.5 13.0 11.7 95 0.4 CALM 0 0 0 0 1014.7 1014.7 0.2
20/07:30pm 12.7 13.2 11.6 93 0.6 CALM 0 0 0 0 1014.8 - 0.0
20/07:00pm 12.3 12.6 10.9 91 0.7 CALM 0 0 0 0 1014.3 1014.3 0.0
20/06:30pm 12.8 13.2 11.2 90 0.8 CALM 0 0 0 0 1014.0 - 0.0
20/06:00pm 13.2 13.6 11.3 88 1.0 CALM 0 0 0 0 1013.7 1013.7 0.0
20/05:30pm 13.7 14.1 11.4 86 1.2 CALM 0 0 0 0 1013.6 - 0.0
20/05:00pm 14.1 14.6 11.6 85 1.3 CALM 0 0 0 0 1013.5 1013.5 0.0
20/04:30pm 14.7 15.3 11.8 83 1.6 CALM 0 0 0 0 1013.3 - 0.0
20/04:00pm 15.0 14.9 12.1 83 1.6 S 4 13 2 7 1013.3 1013.3 0.0
20/03:30pm 15.4 15.0 12.5 83 1.6 S 6 13 3 7 1012.8 - 0.0
20/03:00pm 15.2 14.2 12.3 83 1.6 S 9 19 5 10 1012.7 1012.7 0.0
20/02:30pm 15.7 14.9 12.8 83 1.6 S 9 20 5 11 1012.5 - 0.0
20/02:00pm 15.4 13.7 12.5 83 1.6 S 13 22 7 12 1012.5 1012.5 0.0
20/01:30pm 15.3 13.1 12.2 82 1.7 S 15 28 8 15 1012.4 - 0.0
20/01:00pm 15.4 13.3 12.3 82 1.7 S 15 24 8 13 1012.5 1012.5 0.0
20/12:30pm 16.4 15.4 12.4 77 2.2 SW 9 17 5 9 1012.7 - 0.0
20/12:00pm 16.0 15.2 11.8 76 2.3 S 7 17 4 9 1013.0 1013.0 0.0
20/11:30am 17.5 18.4 12.8 74 2.6 CALM 0 0 0 0 1013.2 - 0.0
20/11:00am 16.2 16.6 11.4 73 2.6 CALM 0 0 0 0 1013.5 1013.5 0.0
20/10:30am 15.3 15.8 11.5 78 2.0 CALM 0 0 0 0 1013.7 - 0.0
20/10:00am 14.4 15.1 12.1 86 1.2 CALM 0 0 0 0 1013.8 1013.8 0.0
20/09:30am 12.5 12.9 11.1 91 0.7 CALM 0 0 0 0 1013.9 - 0.0
20/09:00am 10.8 10.9 10.0 95 0.4 CALM 0 0 0 0 1013.8 1013.8 0.2
20/08:30am 9.6 9.3 8.7 94 0.4 CALM 0 0 0 0 1013.8 - 0.2
20/08:00am 10.0 9.8 9.1 94 0.4 CALM 0 0 0 0 1013.6 1013.6 0.2
20/07:30am 9.6 9.3 8.5 93 0.5 CALM 0 0 0 0 1013.1 - 0.2
20/07:00am 10.0 9.7 8.8 92 0.6 CALM 0 0 0 0 1012.9 1012.9 0.2
20/06:30am 10.2 9.9 8.8 91 0.7 CALM 0 0 0 0 1012.7 - 0.2
20/06:00am 10.4 10.1 8.8 90 0.8 CALM 0 0 0 0 1012.7 1012.7 0.2
20/05:30am 10.6 10.4 9.0 90 0.8 CALM 0 0 0 0 1012.6 - 0.2
20/05:00am 10.4 10.1 8.8 90 0.8 CALM 0 0 0 0 1012.5 1012.5 0.2
20/04:30am 10.5 10.2 8.6 88 0.9 CALM 0 0 0 0 1012.6 - 0.2
20/04:00am 10.9 10.6 8.8 87 1.0 CALM 0 0 0 0 1012.8 1012.8 0.2
20/03:30am 11.1 10.8 8.8 86 1.1 CALM 0 0 0 0 1013.1 - 0.2
20/03:00am 11.3 10.6 8.7 84 1.3 N 2 9 1 5 1013.2 1013.2 0.2
20/02:30am 11.6 11.0 8.8 83 1.4 NNE 2 11 1 6 1012.9 - 0.2
20/02:00am 12.2 10.7 9.2 82 1.5 N 7 11 4 6 1012.8 1012.8 0.2
20/01:30am 11.6 11.3 8.6 82 1.5 CALM 0 0 0 0 1012.9 - 0.2
20/01:00am 11.7 11.4 8.6 81 1.5 CALM 0 0 0 0 1012.9 1012.9 0.2
20/12:30am 12.4 11.4 8.9 79 1.8 NNE 4 11 2 6 1013.1 - 0.2
20/12:00am 12.7 10.4 9.0 78 1.9 NNE 11 17 6 9 1013.2 1013.2 0.2
 
Date/Time
WST
Temp
°C
App
Temp
°C
Dew
Point
Rel
Hum
%
Delta-T
°C
Wind Press
QNH
hPa
Press
MSL
hPa
Rain
since 9 am
mm
Dir
 
Spd
km/h
Gust
km/h
Spd
kts
Gust
kts
19/11:30pm 12.8 10.2 9.3 79 1.8 NE 13 17 7 9 1013.4 - 0.2
19/11:00pm 12.7 9.7 9.2 79 1.8 NE 15 20 8 11 1013.5 1013.5 0.2
19/10:30pm 12.8 9.8 9.3 79 1.8 NE 15 20 8 11 1013.7 - 0.2
19/10:00pm 13.0 10.0 9.1 77 2.0 NE 15 20 8 11 1013.9 1013.9 0.2

Other Formats:

Comma delimited format used in spreadsheet applications
http://www.bom.gov.au/fwo/IDW60801/IDW60801.95647.axf

JavaScript Object Notation format (JSON) in row-major order
http://www.bom.gov.au/fwo/IDW60801/IDW60801.95647.json